sensor_id;sensor_type;location;lat;lon;timestamp;temperature;humidity
54202;DHT22;40108;53.152;5.844;2022-09-20T00:00:06;12.20;80.80
54202;DHT22;40108;53.152;5.844;2022-09-20T00:02:32;12.20;80.80
54202;DHT22;40108;53.152;5.844;2022-09-20T00:04:58;12.20;81.00
54202;DHT22;40108;53.152;5.844;2022-09-20T00:07:23;12.20;80.90
54202;DHT22;40108;53.152;5.844;2022-09-20T00:09:49;12.20;81.10
54202;DHT22;40108;53.152;5.844;2022-09-20T00:12:15;12.20;80.90
54202;DHT22;40108;53.152;5.844;2022-09-20T00:14:40;12.20;81.00
54202;DHT22;40108;53.152;5.844;2022-09-20T00:17:06;12.20;80.90
54202;DHT22;40108;53.152;5.844;2022-09-20T00:19:32;12.20;81.20
54202;DHT22;40108;53.152;5.844;2022-09-20T00:21:57;12.20;81.00
54202;DHT22;40108;53.152;5.844;2022-09-20T00:24:23;12.20;81.10
54202;DHT22;40108;53.152;5.844;2022-09-20T00:26:49;12.20;81.30
54202;DHT22;40108;53.152;5.844;2022-09-20T00:29:16;12.20;81.00
54202;DHT22;40108;53.152;5.844;2022-09-20T00:31:41;12.20;81.00
54202;DHT22;40108;53.152;5.844;2022-09-20T00:34:09;12.20;80.90
54202;DHT22;40108;53.152;5.844;2022-09-20T00:36:53;12.20;80.70
54202;DHT22;40108;53.152;5.844;2022-09-20T00:39:19;12.20;80.50
54202;DHT22;40108;53.152;5.844;2022-09-20T00:41:45;12.20;80.20
54202;DHT22;40108;53.152;5.844;2022-09-20T00:47:31;12.20;80.00
54202;DHT22;40108;53.152;5.844;2022-09-20T00:52:56;12.20;79.70
54202;DHT22;40108;53.152;5.844;2022-09-20T00:55:22;12.20;79.60
54202;DHT22;40108;53.152;5.844;2022-09-20T00:57:49;12.20;79.50
54202;DHT22;40108;53.152;5.844;2022-09-20T01:00:15;12.20;79.40
54202;DHT22;40108;53.152;5.844;2022-09-20T01:02:46;12.20;79.50
54202;DHT22;40108;53.152;5.844;2022-09-20T01:05:13;12.20;79.30
54202;DHT22;40108;53.152;5.844;2022-09-20T01:07:41;12.20;79.20
54202;DHT22;40108;53.152;5.844;2022-09-20T01:10:07;12.20;79.30
54202;DHT22;40108;53.152;5.844;2022-09-20T01:12:33;12.20;79.60
54202;DHT22;40108;53.152;5.844;2022-09-20T01:15:04;12.10;79.80
54202;DHT22;40108;53.152;5.844;2022-09-20T01:17:32;12.10;80.50
54202;DHT22;40108;53.152;5.844;2022-09-20T01:28:04;11.90;81.60
54202;DHT22;40108;53.152;5.844;2022-09-20T01:30:39;11.90;82.00
54202;DHT22;40108;53.152;5.844;2022-09-20T01:33:08;11.90;81.70
54202;DHT22;40108;53.152;5.844;2022-09-20T01:35:36;11.90;81.60
54202;DHT22;40108;53.152;5.844;2022-09-20T01:41:08;12.00;81.50
54202;DHT22;40108;53.152;5.844;2022-09-20T01:43:50;11.90;81.30
54202;DHT22;40108;53.152;5.844;2022-09-20T01:46:30;12.00;81.00
54202;DHT22;40108;53.152;5.844;2022-09-20T01:59:41;12.10;80.70
54202;DHT22;40108;53.152;5.844;2022-09-20T02:02:24;12.10;81.00
54202;DHT22;40108;53.152;5.844;2022-09-20T02:13:09;12.00;81.20
54202;DHT22;40108;53.152;5.844;2022-09-20T02:24:48;11.90;82.00
54202;DHT22;40108;53.152;5.844;2022-09-20T02:43:50;11.80;83.90
54202;DHT22;40108;53.152;5.844;2022-09-20T02:51:52;11.70;84.20
54202;DHT22;40108;53.152;5.844;2022-09-20T02:54:49;11.70;84.80
54202;DHT22;40108;53.152;5.844;2022-09-20T03:00:26;11.70;85.50
54202;DHT22;40108;53.152;5.844;2022-09-20T03:03:23;11.70;85.90
54202;DHT22;40108;53.152;5.844;2022-09-20T03:08:53;11.60;86.50
54202;DHT22;40108;53.152;5.844;2022-09-20T03:14:19;11.60;87.00
54202;DHT22;40108;53.152;5.844;2022-09-20T03:19:59;11.50;87.40
54202;DHT22;40108;53.152;5.844;2022-09-20T03:31:32;11.40;87.90
54202;DHT22;40108;53.152;5.844;2022-09-20T03:34:23;11.30;87.70
54202;DHT22;40108;53.152;5.844;2022-09-20T03:42:24;11.20;87.80
54202;DHT22;40108;53.152;5.844;2022-09-20T03:58:38;11.20;88.10
54202;DHT22;40108;53.152;5.844;2022-09-20T04:21:13;11.20;88.80
54202;DHT22;40108;53.152;5.844;2022-09-20T04:26:35;11.20;88.60
54202;DHT22;40108;53.152;5.844;2022-09-20T04:37:50;11.40;88.80
54202;DHT22;40108;53.152;5.844;2022-09-20T04:45:51;11.40;89.20
54202;DHT22;40108;53.152;5.844;2022-09-20T04:56:52;11.50;89.10
54202;DHT22;40108;53.152;5.844;2022-09-20T05:00:14;11.40;89.20
54202;DHT22;40108;53.152;5.844;2022-09-20T05:02:27;11.40;89.20
54202;DHT22;40108;53.152;5.844;2022-09-20T05:35:28;11.40;88.80
54202;DHT22;40108;53.152;5.844;2022-09-20T05:38:16;11.40;89.00
54202;DHT22;40108;53.152;5.844;2022-09-20T05:41:03;11.40;88.90
54202;DHT22;40108;53.152;5.844;2022-09-20T05:46:59;11.40;88.90
54202;DHT22;40108;53.152;5.844;2022-09-20T05:52:20;11.30;88.90
54202;DHT22;40108;53.152;5.844;2022-09-20T06:00:17;11.20;88.50
54202;DHT22;40108;53.152;5.844;2022-09-20T06:16:05;11.40;88.40
54202;DHT22;40108;53.152;5.844;2022-09-20T06:19:05;11.50;88.40
54202;DHT22;40108;53.152;5.844;2022-09-20T06:21:55;11.60;88.20
54202;DHT22;40108;53.152;5.844;2022-09-20T06:24:36;11.60;88.10
54202;DHT22;40108;53.152;5.844;2022-09-20T06:27:09;11.70;88.00
54202;DHT22;40108;53.152;5.844;2022-09-20T06:29:41;11.70;87.90
54202;DHT22;40108;53.152;5.844;2022-09-20T06:32:10;11.70;87.90
54202;DHT22;40108;53.152;5.844;2022-09-20T06:34:35;11.80;87.80
54202;DHT22;40108;53.152;5.844;2022-09-20T06:40:28;11.80;87.70
54202;DHT22;40108;53.152;5.844;2022-09-20T06:43:07;11.90;87.60
54202;DHT22;40108;53.152;5.844;2022-09-20T06:45:36;11.90;87.60
54202;DHT22;40108;53.152;5.844;2022-09-20T06:48:02;12.00;87.50
54202;DHT22;40108;53.152;5.844;2022-09-20T06:50:28;12.10;87.50
54202;DHT22;40108;53.152;5.844;2022-09-20T06:52:53;12.10;87.40
54202;DHT22;40108;53.152;5.844;2022-09-20T06:55:36;12.10;87.30
54202;DHT22;40108;53.152;5.844;2022-09-20T06:58:03;12.20;87.20
54202;DHT22;40108;53.152;5.844;2022-09-20T07:00:29;12.20;87.10
54202;DHT22;40108;53.152;5.844;2022-09-20T07:02:54;12.30;87.10
54202;DHT22;40108;53.152;5.844;2022-09-20T07:05:21;12.30;87.00
54202;DHT22;40108;53.152;5.844;2022-09-20T07:07:47;12.40;86.80
54202;DHT22;40108;53.152;5.844;2022-09-20T07:10:13;12.40;86.80
54202;DHT22;40108;53.152;5.844;2022-09-20T07:12:40;12.50;86.70
54202;DHT22;40108;53.152;5.844;2022-09-20T07:15:06;12.60;86.60
54202;DHT22;40108;53.152;5.844;2022-09-20T07:17:32;12.70;86.40
54202;DHT22;40108;53.152;5.844;2022-09-20T07:19:58;12.70;86.30
54202;DHT22;40108;53.152;5.844;2022-09-20T07:22:25;12.70;86.00
54202;DHT22;40108;53.152;5.844;2022-09-20T07:24:51;12.80;85.90
54202;DHT22;40108;53.152;5.844;2022-09-20T07:27:17;12.80;85.80
54202;DHT22;40108;53.152;5.844;2022-09-20T07:29:42;12.90;85.90
54202;DHT22;40108;53.152;5.844;2022-09-20T07:32:08;13.00;85.50
54202;DHT22;40108;53.152;5.844;2022-09-20T07:34:34;13.20;85.40
54202;DHT22;40108;53.152;5.844;2022-09-20T07:36:59;13.40;84.70
54202;DHT22;40108;53.152;5.844;2022-09-20T07:39:25;13.60;84.60
54202;DHT22;40108;53.152;5.844;2022-09-20T07:41:51;13.80;84.20
54202;DHT22;40108;53.152;5.844;2022-09-20T07:44:17;14.10;83.30
54202;DHT22;40108;53.152;5.844;2022-09-20T07:49:15;14.60;82.00
54202;DHT22;40108;53.152;5.844;2022-09-20T07:51:40;14.80;81.80
54202;DHT22;40108;53.152;5.844;2022-09-20T07:54:06;15.10;82.10
54202;DHT22;40108;53.152;5.844;2022-09-20T07:56:32;15.40;81.20
54202;DHT22;40108;53.152;5.844;2022-09-20T07:58:57;15.70;80.70
54202;DHT22;40108;53.152;5.844;2022-09-20T08:01:23;16.00;79.20
54202;DHT22;40108;53.152;5.844;2022-09-20T08:03:49;16.10;77.50
54202;DHT22;40108;53.152;5.844;2022-09-20T08:06:15;16.40;75.80
54202;DHT22;40108;53.152;5.844;2022-09-20T08:08:43;16.60;76.00
54202;DHT22;40108;53.152;5.844;2022-09-20T08:11:17;16.90;74.00
54202;DHT22;40108;53.152;5.844;2022-09-20T08:13:48;17.10;74.80
54202;DHT22;40108;53.152;5.844;2022-09-20T08:16:15;17.40;73.80
54202;DHT22;40108;53.152;5.844;2022-09-20T08:18:45;17.40;68.50
54202;DHT22;40108;53.152;5.844;2022-09-20T08:21:12;17.60;68.50
54202;DHT22;40108;53.152;5.844;2022-09-20T08:23:40;17.60;68.60
54202;DHT22;40108;53.152;5.844;2022-09-20T08:26:09;17.50;64.80
54202;DHT22;40108;53.152;5.844;2022-09-20T08:28:37;17.50;63.60
54202;DHT22;40108;53.152;5.844;2022-09-20T08:31:05;17.60;63.80
54202;DHT22;40108;53.152;5.844;2022-09-20T08:33:31;17.50;66.00
54202;DHT22;40108;53.152;5.844;2022-09-20T08:35:58;17.20;67.40
54202;DHT22;40108;53.152;5.844;2022-09-20T08:38:23;17.10;68.00
54202;DHT22;40108;53.152;5.844;2022-09-20T08:40:59;16.70;67.50
54202;DHT22;40108;53.152;5.844;2022-09-20T08:43:31;16.60;69.00
54202;DHT22;40108;53.152;5.844;2022-09-20T08:46:01;16.30;69.40
54202;DHT22;40108;53.152;5.844;2022-09-20T08:48:30;16.10;70.20
54202;DHT22;40108;53.152;5.844;2022-09-20T08:51:00;16.00;71.10
54202;DHT22;40108;53.152;5.844;2022-09-20T08:53:27;15.70;71.90
54202;DHT22;40108;53.152;5.844;2022-09-20T08:55:56;15.70;72.40
54202;DHT22;40108;53.152;5.844;2022-09-20T08:58:25;15.60;72.70
54202;DHT22;40108;53.152;5.844;2022-09-20T09:00:51;15.60;72.20
54202;DHT22;40108;53.152;5.844;2022-09-20T09:03:18;15.50;72.10
54202;DHT22;40108;53.152;5.844;2022-09-20T09:08:18;15.40;72.80
54202;DHT22;40108;53.152;5.844;2022-09-20T09:10:51;15.50;72.10
54202;DHT22;40108;53.152;5.844;2022-09-20T09:16:12;15.60;72.60
54202;DHT22;40108;53.152;5.844;2022-09-20T09:18:40;15.90;72.30
54202;DHT22;40108;53.152;5.844;2022-09-20T09:21:07;16.30;72.90
54202;DHT22;40108;53.152;5.844;2022-09-20T09:23:40;17.00;72.70
54202;DHT22;40108;53.152;5.844;2022-09-20T09:26:16;17.50;70.30
54202;DHT22;40108;53.152;5.844;2022-09-20T09:28:42;17.60;67.90
54202;DHT22;40108;53.152;5.844;2022-09-20T09:31:19;17.90;66.40
54202;DHT22;40108;53.152;5.844;2022-09-20T09:33:46;17.90;65.60
54202;DHT22;40108;53.152;5.844;2022-09-20T09:36:20;17.60;64.20
54202;DHT22;40108;53.152;5.844;2022-09-20T09:38:48;17.30;64.40
54202;DHT22;40108;53.152;5.844;2022-09-20T09:43:42;16.80;64.70
54202;DHT22;40108;53.152;5.844;2022-09-20T09:46:20;16.70;65.60
54202;DHT22;40108;53.152;5.844;2022-09-20T09:48:47;17.00;63.90
54202;DHT22;40108;53.152;5.844;2022-09-20T09:51:29;17.60;67.60
54202;DHT22;40108;53.152;5.844;2022-09-20T09:53:57;18.50;63.90
54202;DHT22;40108;53.152;5.844;2022-09-20T09:56:31;18.70;60.90
54202;DHT22;40108;53.152;5.844;2022-09-20T10:02:22;18.20;62.90
54202;DHT22;40108;53.152;5.844;2022-09-20T10:13:21;17.00;66.30
54202;DHT22;40108;53.152;5.844;2022-09-20T10:16:06;16.90;67.50
54202;DHT22;40108;53.152;5.844;2022-09-20T10:38:05;15.70;73.70
54202;DHT22;40108;53.152;5.844;2022-09-20T10:46:20;15.60;73.50
54202;DHT22;40108;53.152;5.844;2022-09-20T10:49:01;15.60;72.70
54202;DHT22;40108;53.152;5.844;2022-09-20T10:52:20;15.70;72.90
54202;DHT22;40108;53.152;5.844;2022-09-20T11:08:26;16.70;70.30
54202;DHT22;40108;53.152;5.844;2022-09-20T11:11:04;16.70;69.50
54202;DHT22;40108;53.152;5.844;2022-09-20T11:13:46;16.70;67.00
54202;DHT22;40108;53.152;5.844;2022-09-20T11:16:25;16.70;67.30
54202;DHT22;40108;53.152;5.844;2022-09-20T11:19:04;16.90;67.40
54202;DHT22;40108;53.152;5.844;2022-09-20T11:26:56;16.70;67.50
54202;DHT22;40108;53.152;5.844;2022-09-20T11:29:35;16.50;69.20
54202;DHT22;40108;53.152;5.844;2022-09-20T11:32:13;16.30;69.90
54202;DHT22;40108;53.152;5.844;2022-09-20T11:34:58;16.10;70.70
54202;DHT22;40108;53.152;5.844;2022-09-20T11:37:31;16.10;71.30
54202;DHT22;40108;53.152;5.844;2022-09-20T11:40:06;16.00;70.70
54202;DHT22;40108;53.152;5.844;2022-09-20T11:42:35;16.10;72.30
54202;DHT22;40108;53.152;5.844;2022-09-20T11:45:03;16.20;70.90
54202;DHT22;40108;53.152;5.844;2022-09-20T11:47:36;16.30;71.50
54202;DHT22;40108;53.152;5.844;2022-09-20T11:50:35;16.50;69.70
54202;DHT22;40108;53.152;5.844;2022-09-20T11:55:56;16.60;69.70
54202;DHT22;40108;53.152;5.844;2022-09-20T11:58:26;16.80;69.20
54202;DHT22;40108;53.152;5.844;2022-09-20T12:00:55;17.10;67.70
54202;DHT22;40108;53.152;5.844;2022-09-20T12:03:35;17.20;68.00
54202;DHT22;40108;53.152;5.844;2022-09-20T12:06:07;17.30;66.80
54202;DHT22;40108;53.152;5.844;2022-09-20T12:08:48;17.30;67.30
54202;DHT22;40108;53.152;5.844;2022-09-20T12:11:15;17.20;67.00
54202;DHT22;40108;53.152;5.844;2022-09-20T12:13:59;17.20;67.30
54202;DHT22;40108;53.152;5.844;2022-09-20T12:16:44;17.20;66.80
54202;DHT22;40108;53.152;5.844;2022-09-20T12:24:37;17.10;67.20
54202;DHT22;40108;53.152;5.844;2022-09-20T12:32:40;17.10;62.90
54202;DHT22;40108;53.152;5.844;2022-09-20T12:38:27;16.90;64.80
54202;DHT22;40108;53.152;5.844;2022-09-20T12:41:05;16.90;64.10
54202;DHT22;40108;53.152;5.844;2022-09-20T12:43:35;16.90;63.60
54202;DHT22;40108;53.152;5.844;2022-09-20T12:46:01;16.90;62.70
54202;DHT22;40108;53.152;5.844;2022-09-20T12:48:34;16.90;63.80
54202;DHT22;40108;53.152;5.844;2022-09-20T12:54:04;17.00;63.00
54202;DHT22;40108;53.152;5.844;2022-09-20T12:56:34;17.10;62.90
54202;DHT22;40108;53.152;5.844;2022-09-20T12:59:01;17.10;63.20
54202;DHT22;40108;53.152;5.844;2022-09-20T13:01:34;17.30;61.70
54202;DHT22;40108;53.152;5.844;2022-09-20T13:07:29;17.10;58.60
54202;DHT22;40108;53.152;5.844;2022-09-20T13:10:00;16.90;58.60
54202;DHT22;40108;53.152;5.844;2022-09-20T13:12:28;16.70;58.70
54202;DHT22;40108;53.152;5.844;2022-09-20T13:14:54;16.60;57.60
54202;DHT22;40108;53.152;5.844;2022-09-20T13:17:28;16.50;59.00
54202;DHT22;40108;53.152;5.844;2022-09-20T13:19:57;16.60;60.50
54202;DHT22;40108;53.152;5.844;2022-09-20T13:22:28;16.60;59.70
54202;DHT22;40108;53.152;5.844;2022-09-20T13:25:04;16.60;57.70
54202;DHT22;40108;53.152;5.844;2022-09-20T13:27:35;16.60;58.90
54202;DHT22;40108;53.152;5.844;2022-09-20T13:30:22;16.60;58.40
54202;DHT22;40108;53.152;5.844;2022-09-20T13:32:49;16.60;60.10
54202;DHT22;40108;53.152;5.844;2022-09-20T13:37:57;16.60;61.00
54202;DHT22;40108;53.152;5.844;2022-09-20T13:40:42;16.60;59.30
54202;DHT22;40108;53.152;5.844;2022-09-20T13:43:34;16.60;56.30
54202;DHT22;40108;53.152;5.844;2022-09-20T13:48:33;16.50;58.90
54202;DHT22;40108;53.152;5.844;2022-09-20T13:50:59;16.50;60.10
54202;DHT22;40108;53.152;5.844;2022-09-20T13:53:27;16.40;61.80
54202;DHT22;40108;53.152;5.844;2022-09-20T13:55:53;16.50;64.20
54202;DHT22;40108;53.152;5.844;2022-09-20T13:58:24;16.60;64.40
54202;DHT22;40108;53.152;5.844;2022-09-20T14:00:57;16.60;63.80
54202;DHT22;40108;53.152;5.844;2022-09-20T14:03:24;16.60;63.30
54202;DHT22;40108;53.152;5.844;2022-09-20T14:05:55;16.50;63.50
54202;DHT22;40108;53.152;5.844;2022-09-20T14:13:41;16.60;63.70
54202;DHT22;40108;53.152;5.844;2022-09-20T14:16:08;16.60;64.60
54202;DHT22;40108;53.152;5.844;2022-09-20T14:18:35;16.70;64.00
54202;DHT22;40108;53.152;5.844;2022-09-20T14:21:04;16.80;64.00
54202;DHT22;40108;53.152;5.844;2022-09-20T14:23:30;16.90;65.10
54202;DHT22;40108;53.152;5.844;2022-09-20T14:28:41;17.00;63.50
54202;DHT22;40108;53.152;5.844;2022-09-20T14:31:26;17.00;64.90
54202;DHT22;40108;53.152;5.844;2022-09-20T14:34:01;16.90;64.80
54202;DHT22;40108;53.152;5.844;2022-09-20T14:36:28;16.80;65.40
54202;DHT22;40108;53.152;5.844;2022-09-20T14:39:00;16.80;64.90
54202;DHT22;40108;53.152;5.844;2022-09-20T14:41:34;16.80;64.40
54202;DHT22;40108;53.152;5.844;2022-09-20T14:44:01;16.80;62.20
54202;DHT22;40108;53.152;5.844;2022-09-20T14:46:34;16.70;62.50
54202;DHT22;40108;53.152;5.844;2022-09-20T14:49:29;16.70;61.00
54202;DHT22;40108;53.152;5.844;2022-09-20T14:55:16;16.40;62.80
54202;DHT22;40108;53.152;5.844;2022-09-20T14:57:44;16.40;63.10
54202;DHT22;40108;53.152;5.844;2022-09-20T15:00:12;16.30;62.80
54202;DHT22;40108;53.152;5.844;2022-09-20T15:02:42;16.20;63.50
54202;DHT22;40108;53.152;5.844;2022-09-20T15:05:24;16.30;61.90
54202;DHT22;40108;53.152;5.844;2022-09-20T15:07:54;16.20;63.10
54202;DHT22;40108;53.152;5.844;2022-09-20T15:10:21;16.20;62.60
54202;DHT22;40108;53.152;5.844;2022-09-20T15:12:47;16.10;62.60
54202;DHT22;40108;53.152;5.844;2022-09-20T15:15:15;16.10;63.40
54202;DHT22;40108;53.152;5.844;2022-09-20T15:17:43;16.00;62.90
54202;DHT22;40108;53.152;5.844;2022-09-20T15:20:14;15.80;63.40
54202;DHT22;40108;53.152;5.844;2022-09-20T15:22:40;15.70;63.70
54202;DHT22;40108;53.152;5.844;2022-09-20T15:25:11;15.60;63.80
54202;DHT22;40108;53.152;5.844;2022-09-20T15:27:38;15.60;64.40
54202;DHT22;40108;53.152;5.844;2022-09-20T15:30:04;15.50;64.00
54202;DHT22;40108;53.152;5.844;2022-09-20T15:32:30;15.50;63.20
54202;DHT22;40108;53.152;5.844;2022-09-20T15:34:56;15.50;63.50
54202;DHT22;40108;53.152;5.844;2022-09-20T15:37:22;15.50;63.90
54202;DHT22;40108;53.152;5.844;2022-09-20T15:39:47;15.50;64.00
54202;DHT22;40108;53.152;5.844;2022-09-20T15:42:14;15.40;64.40
54202;DHT22;40108;53.152;5.844;2022-09-20T15:44:39;15.40;64.00
54202;DHT22;40108;53.152;5.844;2022-09-20T15:47:05;15.40;62.20
54202;DHT22;40108;53.152;5.844;2022-09-20T15:49:32;15.40;62.50
54202;DHT22;40108;53.152;5.844;2022-09-20T15:51:57;15.40;62.30
54202;DHT22;40108;53.152;5.844;2022-09-20T15:54:23;15.40;62.50
54202;DHT22;40108;53.152;5.844;2022-09-20T15:56:51;15.40;62.10
54202;DHT22;40108;53.152;5.844;2022-09-20T15:59:18;15.40;62.90
54202;DHT22;40108;53.152;5.844;2022-09-20T16:01:47;15.30;63.20
54202;DHT22;40108;53.152;5.844;2022-09-20T16:04:15;15.20;62.40
54202;DHT22;40108;53.152;5.844;2022-09-20T16:06:45;15.30;62.50
54202;DHT22;40108;53.152;5.844;2022-09-20T16:09:11;15.20;63.30
54202;DHT22;40108;53.152;5.844;2022-09-20T16:11:38;15.20;62.60
54202;DHT22;40108;53.152;5.844;2022-09-20T16:14:04;15.10;62.60
54202;DHT22;40108;53.152;5.844;2022-09-20T16:16:31;15.20;63.20
54202;DHT22;40108;53.152;5.844;2022-09-20T16:18:58;15.30;64.10
54202;DHT22;40108;53.152;5.844;2022-09-20T16:21:43;15.30;65.20
54202;DHT22;40108;53.152;5.844;2022-09-20T16:24:11;15.40;65.50
54202;DHT22;40108;53.152;5.844;2022-09-20T16:26:38;15.50;63.30
54202;DHT22;40108;53.152;5.844;2022-09-20T16:29:04;15.50;63.20
54202;DHT22;40108;53.152;5.844;2022-09-20T16:31:36;15.50;63.80
54202;DHT22;40108;53.152;5.844;2022-09-20T16:34:25;15.50;64.60
54202;DHT22;40108;53.152;5.844;2022-09-20T16:36:57;15.40;64.30
54202;DHT22;40108;53.152;5.844;2022-09-20T16:39:24;15.40;63.00
54202;DHT22;40108;53.152;5.844;2022-09-20T16:41:58;15.40;64.30
54202;DHT22;40108;53.152;5.844;2022-09-20T16:44:38;15.30;64.50
54202;DHT22;40108;53.152;5.844;2022-09-20T16:47:09;15.20;65.20
54202;DHT22;40108;53.152;5.844;2022-09-20T16:49:36;15.10;65.10
54202;DHT22;40108;53.152;5.844;2022-09-20T16:52:06;15.10;65.60
54202;DHT22;40108;53.152;5.844;2022-09-20T16:54:32;15.10;66.20
54202;DHT22;40108;53.152;5.844;2022-09-20T16:56:58;14.90;66.60
54202;DHT22;40108;53.152;5.844;2022-09-20T16:59:24;14.90;66.70
54202;DHT22;40108;53.152;5.844;2022-09-20T17:01:50;14.80;67.20
54202;DHT22;40108;53.152;5.844;2022-09-20T17:04:16;14.70;67.60
54202;DHT22;40108;53.152;5.844;2022-09-20T17:06:43;14.70;68.20
54202;DHT22;40108;53.152;5.844;2022-09-20T17:09:10;14.60;68.90
54202;DHT22;40108;53.152;5.844;2022-09-20T17:11:38;14.70;68.90
54202;DHT22;40108;53.152;5.844;2022-09-20T17:14:05;14.70;69.30
54202;DHT22;40108;53.152;5.844;2022-09-20T17:16:33;14.70;69.60
54202;DHT22;40108;53.152;5.844;2022-09-20T17:19:01;14.70;69.60
54202;DHT22;40108;53.152;5.844;2022-09-20T17:21:28;14.70;70.30
54202;DHT22;40108;53.152;5.844;2022-09-20T17:23:56;14.70;70.40
54202;DHT22;40108;53.152;5.844;2022-09-20T17:26:24;14.60;70.60
54202;DHT22;40108;53.152;5.844;2022-09-20T17:28:52;14.60;70.70
54202;DHT22;40108;53.152;5.844;2022-09-20T17:31:22;14.50;71.00
54202;DHT22;40108;53.152;5.844;2022-09-20T17:33:49;14.40;71.70
54202;DHT22;40108;53.152;5.844;2022-09-20T17:36:19;14.30;71.80
54202;DHT22;40108;53.152;5.844;2022-09-20T17:38:52;14.20;72.10
54202;DHT22;40108;53.152;5.844;2022-09-20T17:41:19;14.10;72.80
54202;DHT22;40108;53.152;5.844;2022-09-20T17:43:46;14.10;72.60
54202;DHT22;40108;53.152;5.844;2022-09-20T17:48:40;13.90;73.00
54202;DHT22;40108;53.152;5.844;2022-09-20T17:51:07;13.80;73.10
54202;DHT22;40108;53.152;5.844;2022-09-20T17:53:35;13.80;73.50
54202;DHT22;40108;53.152;5.844;2022-09-20T17:56:03;13.70;73.40
54202;DHT22;40108;53.152;5.844;2022-09-20T17:58:29;13.60;73.80
54202;DHT22;40108;53.152;5.844;2022-09-20T18:01:02;13.60;73.70
54202;DHT22;40108;53.152;5.844;2022-09-20T18:03:28;13.50;73.90
54202;DHT22;40108;53.152;5.844;2022-09-20T18:05:53;13.40;74.00
54202;DHT22;40108;53.152;5.844;2022-09-20T18:08:19;13.40;74.40
54202;DHT22;40108;53.152;5.844;2022-09-20T18:10:55;13.30;74.60
54202;DHT22;40108;53.152;5.844;2022-09-20T18:13:22;13.20;74.70
54202;DHT22;40108;53.152;5.844;2022-09-20T18:15:48;13.20;75.00
54202;DHT22;40108;53.152;5.844;2022-09-20T18:18:13;13.10;75.30
54202;DHT22;40108;53.152;5.844;2022-09-20T18:20:39;13.10;75.70
54202;DHT22;40108;53.152;5.844;2022-09-20T18:23:05;13.00;75.80
54202;DHT22;40108;53.152;5.844;2022-09-20T18:25:30;12.90;76.30
54202;DHT22;40108;53.152;5.844;2022-09-20T18:28:18;12.80;76.50
54202;DHT22;40108;53.152;5.844;2022-09-20T18:30:44;12.80;76.90
54202;DHT22;40108;53.152;5.844;2022-09-20T18:33:11;12.80;77.20
54202;DHT22;40108;53.152;5.844;2022-09-20T18:35:37;12.70;77.40
54202;DHT22;40108;53.152;5.844;2022-09-20T18:38:09;12.70;77.80
54202;DHT22;40108;53.152;5.844;2022-09-20T18:40:36;12.60;77.90
54202;DHT22;40108;53.152;5.844;2022-09-20T18:43:03;12.60;78.20
54202;DHT22;40108;53.152;5.844;2022-09-20T18:45:29;12.50;78.50
54202;DHT22;40108;53.152;5.844;2022-09-20T18:47:55;12.40;78.60
54202;DHT22;40108;53.152;5.844;2022-09-20T18:50:25;12.40;78.50
54202;DHT22;40108;53.152;5.844;2022-09-20T18:52:53;12.20;78.60
54202;DHT22;40108;53.152;5.844;2022-09-20T18:55:19;12.20;78.90
54202;DHT22;40108;53.152;5.844;2022-09-20T18:57:48;12.10;79.10
54202;DHT22;40108;53.152;5.844;2022-09-20T19:00:14;12.10;79.30
54202;DHT22;40108;53.152;5.844;2022-09-20T19:05:47;12.00;79.70
54202;DHT22;40108;53.152;5.844;2022-09-20T19:08:52;11.90;79.60
54202;DHT22;40108;53.152;5.844;2022-09-20T19:11:26;11.90;80.00
54202;DHT22;40108;53.152;5.844;2022-09-20T19:14:04;11.80;80.10
54202;DHT22;40108;53.152;5.844;2022-09-20T19:16:35;11.80;80.00
54202;DHT22;40108;53.152;5.844;2022-09-20T19:26:46;11.60;80.90
54202;DHT22;40108;53.152;5.844;2022-09-20T19:31:48;11.60;81.40
54202;DHT22;40108;53.152;5.844;2022-09-20T19:34:19;11.50;81.20
54202;DHT22;40108;53.152;5.844;2022-09-20T19:48:16;11.30;81.80
54202;DHT22;40108;53.152;5.844;2022-09-20T19:50:47;11.20;82.10
54202;DHT22;40108;53.152;5.844;2022-09-20T19:53:18;11.20;81.90
54202;DHT22;40108;53.152;5.844;2022-09-20T19:58:33;11.10;82.20
54202;DHT22;40108;53.152;5.844;2022-09-20T20:01:00;11.10;82.50
54202;DHT22;40108;53.152;5.844;2022-09-20T20:03:26;11.10;82.70
54202;DHT22;40108;53.152;5.844;2022-09-20T20:05:59;11.00;82.20
54202;DHT22;40108;53.152;5.844;2022-09-20T20:08:39;10.90;81.60
54202;DHT22;40108;53.152;5.844;2022-09-20T20:11:24;10.80;82.80
54202;DHT22;40108;53.152;5.844;2022-09-20T20:19:42;10.60;84.00
54202;DHT22;40108;53.152;5.844;2022-09-20T20:22:17;10.50;83.80
54202;DHT22;40108;53.152;5.844;2022-09-20T20:24:51;10.50;83.80
54202;DHT22;40108;53.152;5.844;2022-09-20T20:27:18;10.40;84.40
54202;DHT22;40108;53.152;5.844;2022-09-20T20:29:44;10.40;84.20
54202;DHT22;40108;53.152;5.844;2022-09-20T20:32:10;10.30;84.00
54202;DHT22;40108;53.152;5.844;2022-09-20T20:34:35;10.30;84.40
54202;DHT22;40108;53.152;5.844;2022-09-20T20:37:03;10.30;84.50
54202;DHT22;40108;53.152;5.844;2022-09-20T20:39:29;10.30;84.80
54202;DHT22;40108;53.152;5.844;2022-09-20T20:41:56;10.40;84.80
54202;DHT22;40108;53.152;5.844;2022-09-20T20:44:23;10.40;84.70
54202;DHT22;40108;53.152;5.844;2022-09-20T20:46:49;10.30;84.60
54202;DHT22;40108;53.152;5.844;2022-09-20T20:49:15;10.30;84.30
54202;DHT22;40108;53.152;5.844;2022-09-20T20:51:42;10.20;84.60
54202;DHT22;40108;53.152;5.844;2022-09-20T20:54:07;10.20;84.60
54202;DHT22;40108;53.152;5.844;2022-09-20T20:56:34;10.20;84.90
54202;DHT22;40108;53.152;5.844;2022-09-20T20:59:02;10.20;84.70
54202;DHT22;40108;53.152;5.844;2022-09-20T21:01:30;10.20;84.70
54202;DHT22;40108;53.152;5.844;2022-09-20T21:03:56;10.20;84.90
54202;DHT22;40108;53.152;5.844;2022-09-20T21:06:30;10.20;84.80
54202;DHT22;40108;53.152;5.844;2022-09-20T21:08:57;10.20;85.10
54202;DHT22;40108;53.152;5.844;2022-09-20T21:11:27;10.20;84.90
54202;DHT22;40108;53.152;5.844;2022-09-20T21:13:59;10.10;84.60
54202;DHT22;40108;53.152;5.844;2022-09-20T21:16:27;10.10;85.10
54202;DHT22;40108;53.152;5.844;2022-09-20T21:18:54;10.00;85.70
54202;DHT22;40108;53.152;5.844;2022-09-20T21:23:49;9.90;86.50
54202;DHT22;40108;53.152;5.844;2022-09-20T21:26:16;9.90;86.50
54202;DHT22;40108;53.152;5.844;2022-09-20T21:28:44;9.90;86.20
54202;DHT22;40108;53.152;5.844;2022-09-20T21:31:11;9.90;85.70
54202;DHT22;40108;53.152;5.844;2022-09-20T21:33:41;9.80;86.00
54202;DHT22;40108;53.152;5.844;2022-09-20T21:36:12;9.80;86.40
54202;DHT22;40108;53.152;5.844;2022-09-20T21:38:42;9.80;86.60
54202;DHT22;40108;53.152;5.844;2022-09-20T21:41:21;9.70;86.90
54202;DHT22;40108;53.152;5.844;2022-09-20T21:43:47;9.70;86.90
54202;DHT22;40108;53.152;5.844;2022-09-20T21:46:25;9.70;86.50
54202;DHT22;40108;53.152;5.844;2022-09-20T21:48:53;9.60;87.10